Aérodrome :
LOGIN :

S'inscrire | Disclaimer

   EN    FR    IT 

 










Légende :    VFR   VFR Marginal   IFR   IFR Intensif   IFR Très Intensif
Visi : 
Plafond : 
>= 8 km
>= 3000ft
5 à 8 km
1000 à 3000 ft
1500m à 5 km
500 à 1000 ft
800 à 1500m
200 à 500 ft
< 800m
< 200 ft
Symboles :   Orages  Brouillard  Fortes neiges  Fortes précipitations  Vent > 20 kt
SIGMETs :   Divers  Orages  Givrage  Turbulence  Onde Orograph.  Cendres Volcan.







- Altitude de l'aérodrome : 364 ft
- Code IATA : FRA


EDDF - Frankfurt Int.

DERNIER METAR :
  • 011720Z 19010KT 9999 -RA FEW016 SCT025 BKN040 07/05 Q1005 TEMPO RA

METARs EXPIRÉS :
  • 011650Z 22015KT 9999 -RA FEW016 SCT031 BKN040 08/04 Q1005 TEMPO RA
  • 011620Z 22014KT 190V250 9999 FEW024 BKN040 BKN100 09/03 Q1005 TEMPO RA
  • 011550Z 22011KT 9999 FEW024 BKN040 BKN100 09/03 Q1005 NOSIG
  • 011520Z 21012KT 9999 -SHRA FEW028TCU SCT050 BKN120 08/03 Q1005 NOSIG
  • 011450Z 21018KT 9999 VCSH FEW028TCU SCT050 BKN150 09/03 Q1004 NOSIG

TAF TAF EDDF
Valide du 01 à 18h jusqu'au 03 à 00h UTC


011700Z 0118/0224 20012KT 9999 SCT025 BKN045
TEMPO 0118/0202 RA
PROB40
TEMPO 0122/0202 4000 -RA BKN012
BECMG 0200/0203 21015G25KT
BECMG 0207/0209 24020G35KT
BECMG 0215/0217 23012G25KT
Pas de NOTAMs connus pour ce terrain.



MET'MAP, la Météo Aéronautique d'un coup d'oeil ! - Copyright ORBIFLY Décembre 2007 - Disclaimer

ORBIFLY MET'MAP TEAM :

Programmation & Développement : Alexandra Zaïnal
Conception & Développement : Baudouin d'Aumeries
Co-Programmation & Développement : Marc-Olivier Méhu
Soutien technique & logistique : Manuel Goepfert

Contact : metmap@orbifly.com




SOURCES & CREDITS :

   NOAA